Map

Track Data

SID SEASON NUMBER BASIN SUBBASIN NAME ISO_TIME NATURE LAT LON WMO_WIND WMO_PRES WMO_AGENCY TRACK_TYPE DIST2LAND LANDFALL IFLAG USA_AGENCY USA_ATCF_ID USA_LAT USA_LON USA_RECORD USA_STATUS USA_WIND USA_PRES USA_SSHS USA_R34_NE USA_R34_SE USA_R34_SW USA_R34_NW USA_R50_NE USA_R50_SE USA_R50_SW USA_R50_NW USA_R64_NE USA_R64_SE USA_R64_SW USA_R64_NW USA_POCI USA_ROCI USA_RMW USA_EYE TOKYO_LAT TOKYO_LON TOKYO_GRADE TOKYO_WIND TOKYO_PRES TOKYO_R50_DIR TOKYO_R50_LONG TOKYO_R50_SHORT TOKYO_R30_DIR TOKYO_R30_LONG TOKYO_R30_SHORT TOKYO_LAND CMA_LAT CMA_LON CMA_CAT CMA_WIND CMA_PRES HKO_LAT HKO_LON HKO_CAT HKO_WIND HKO_PRES NEWDELHI_LAT NEWDELHI_LON NEWDELHI_GRADE NEWDELHI_WIND NEWDELHI_PRES NEWDELHI_CI NEWDELHI_DP NEWDELHI_POCI REUNION_LAT REUNION_LON REUNION_TYPE REUNION_WIND REUNION_PRES REUNION_TNUM REUNION_CI REUNION_RMW REUNION_R34_NE REUNION_R34_SE REUNION_R34_SW REUNION_R34_NW REUNION_R50_NE REUNION_R50_SE REUNION_R50_SW REUNION_R50_NW REUNION_R64_NE REUNION_R64_SE REUNION_R64_SW REUNION_R64_NW BOM_LAT BOM_LON BOM_TYPE BOM_WIND BOM_PRES BOM_TNUM BOM_CI BOM_RMW BOM_R34_NE BOM_R34_SE BOM_R34_SW BOM_R34_NW BOM_R50_NE BOM_R50_SE BOM_R50_SW BOM_R50_NW BOM_R64_NE BOM_R64_SE BOM_R64_SW BOM_R64_NW BOM_ROCI BOM_POCI BOM_EYE BOM_POS_METHOD BOM_PRES_METHOD NADI_LAT NADI_LON NADI_CAT NADI_WIND NADI_PRES WELLINGTON_LAT WELLINGTON_LON WELLINGTON_WIND WELLINGTON_PRES DS824_LAT DS824_LON DS824_STAGE DS824_WIND DS824_PRES TD9636_LAT TD9636_LON TD9636_STAGE TD9636_WIND TD9636_PRES TD9635_LAT TD9635_LON TD9635_WIND TD9635_PRES TD9635_ROCI NEUMANN_LAT NEUMANN_LON NEUMANN_CLASS NEUMANN_WIND NEUMANN_PRES MLC_LAT MLC_LON MLC_CLASS MLC_WIND MLC_PRES USA_GUST BOM_GUST BOM_GUST_PER REUNION_GUST REUNION_GUST_PER USA_SEAHGT USA_SEARAD_NE USA_SEARAD_SE USA_SEARAD_SW USA_SEARAD_NW STORM_SPEED STORM_DIR
1975033S11073 1975 20 SI MM GERVAISE 1975-02-01 18:00:00 TS -11.0000 73.1000 main 1937 1885 O________OO___ jtwc_sh SH201975 -11.0000 73.1000 -1 -11.0000 73.1000 TC -11.0000 73.1000 7 10 254
1975033S11073 1975 20 SI MM GERVAISE 1975-02-01 21:00:00 TS -11.1474 72.5903 main 1885 1827 P________PP___ SH201975 -11.1402 72.5876 -1 -11.1402 72.5876 TC -11.1618 72.5958 7 10 252
1975033S11073 1975 20 SI MM GERVAISE 1975-02-02 00:00:00 TS -11.3095 72.1043 main 1827 1779 O________OP___ jtwc_sh SH201975 -11.3000 72.1000 -1 -11.3000 72.1000 TC -11.3285 72.1131 7 10 249
1975033S11073 1975 20 SI MM GERVAISE 1975-02-02 03:00:00 TS -11.4970 71.6663 main 1779 1739 P________PP___ SH201975 -11.4925 71.6625 -1 -11.4925 71.6625 TC -11.5059 71.6738 7 8 238
1975033S11073 1975 20 SI MM GERVAISE 1975-02-02 06:00:00 TS -11.7429 71.4000 reunion main 1739 1708 O____O___OO_O_ jtwc_sh SH201975 -11.7000 71.3000 -1 -12.0000 72.0000 3 9.90000 -11.7000 71.3000 TC 25 -11.7000 71.3000 1 -12.0000 72.0000 TC 35 6 226
1975033S11073 1975 20 SI MM GERVAISE 1975-02-02 09:00:00 TS -11.9360 71.1998 main 1708 1678 P____P___PP_P_ SH201975 -11.8924 71.0274 -1 -12.0451 71.7400 3 -11.8924 71.0274 TC 25 -11.9142 71.0044 1 -12.0451 71.7400 TC 35 5 225
1975033S11073 1975 20 SI MM GERVAISE 1975-02-02 12:00:00 TS -12.1093 71.0249 reunion main 1678 1656 O____O___OP_O_ jtwc_sh SH201975 -12.1000 70.8000 -1 -12.1000 71.5000 99 9.90000 -12.1000 70.8000 TC 25 -12.1419 70.7621 1 -12.1000 71.5000 TC 35 5 224
1975033S11073 1975 20 SI MM GERVAISE 1975-02-02 15:00:00 TS -12.2857 70.8507 main 1656 1617 P____P___PP_P_ SH201975 -12.3499 70.5650 -1 -12.1775 71.2925 99 -12.3499 70.5650 TC 25 -12.3736 70.5388 1 -12.1775 71.2925 TC 35 5 227
1975033S11073 1975 20 SI MM GERVAISE 1975-02-02 18:00:00 TS -12.4800 70.6200 reunion main 1617 1586 O____O___OO_O_ jtwc_sh SH201975 -12.6000 70.3000 -1 -12.3000 71.1000 99 9.90000 -12.6000 70.3000 TC 25 -12.6000 70.3000 1 -12.3000 71.1000 TC 35 6 231
1975033S11073 1975 20 SI MM GERVAISE 1975-02-02 21:00:00 TS -12.6891 70.3385 main 1577 1547 P____P___PP_P_ SH201975 -12.8075 69.9575 -1 -12.5075 70.8926 99 -12.8075 69.9575 TC 25 -12.8153 69.9925 1 -12.5075 70.8926 TC 37 7 234
1975033S11073 1975 20 SI MM GERVAISE 1975-02-03 00:00:00 TS -12.8845 70.0530 reunion main 1547 1514 O____O___OP_O_ jtwc_sh SH201975 -13.0000 69.6000 -1 -12.7000 70.7000 99 9.90000 -13.0000 69.6000 TC 25 -13.0225 69.6650 1 -12.7000 70.7000 TC 40 6 237
1975033S11073 1975 20 SI MM GERVAISE 1975-02-03 03:00:00 TS -13.0236 69.8059 main 1514 1483 P____P___PP_P_ SH201975 -13.2074 69.2925 -1 -12.7424 70.5574 99 -13.2074 69.2925 TC 30 -13.2185 69.3300 1 -12.7424 70.5574 TC 40 6 240
1975033S11073 1975 20 SI MM GERVAISE 1975-02-03 06:00:00 TS -13.1600 69.5600 reunion main 1483 1450 O____O___OO_O_ jtwc_sh SH201975 -13.4000 69.0000 -1 -12.8000 70.4000 3 9.90000 -13.4000 69.0000 TC 35 -13.4000 69.0000 2 -12.8000 70.4000 TC 40 6 237
1975033S11073 1975 20 SI MM GERVAISE 1975-02-03 09:00:00 TS -13.3446 69.2899 main 1450 1410 P____P___PP_P_ SH201975 -13.5575 68.6999 -1 -13.0200 70.1725 3 -13.5575 68.6999 TC 35 -13.5682 68.7048 2 -13.0200 70.1725 TC 42 7 235
1975033S11073 1975 20 SI MM GERVAISE 1975-02-03 12:00:00 TS -13.5444 69.0029 reunion main 1410 1371 O____O___OP_O_ jtwc_sh SH201975 -13.7000 68.4000 -1 -13.3000 69.9000 99 9.90000 -13.7000 68.4000 TC 35 -13.7221 68.4147 2 -13.3000 69.9000 TC 45 7 235
1975033S11073 1975 20 SI MM GERVAISE 1975-02-03 15:00:00 TS -13.7420 68.7005 main 1371 1332 P____P___PP_P_ SH201975 -13.8574 68.1075 -1 -13.5651 69.5851 99 -13.8574 68.1075 TC 35 -13.8650 68.1173 2 -13.5651 69.5851 TC 45 7 237
1975033S11073 1975 20 SI MM GERVAISE 1975-02-03 18:00:00 TS -13.9200 68.4000 reunion main 1332 1307 O____O___OO_O_ jtwc_sh SH201975 -14.0000 67.8000 -1 -13.8000 69.3000 99 9.90000 -14.0000 67.8000 TC 35 -14.0000 67.8000 2 -13.8000 69.3000 TC 45 6 241
1975033S11073 1975 20 SI MM GERVAISE 1975-02-03 21:00:00 TS -14.0417 68.1422 main 1298 1268 P____P___PP_P_ SH201975 -14.0999 67.4649 -1 -13.9424 69.1572 99 -14.0999 67.4649 TC 35 -14.1238 67.4665 2 -13.9424 69.1572 TC 47 6 245
1975033S11073 1975 20 SI MM GERVAISE 1975-02-04 00:00:00 TS -14.1684 67.8619 reunion main 1268 1220 O____O___OP_O_ jtwc_sh SH201975 -14.2000 67.1000 -1 -14.1000 69.0000 99 9.90000 -14.2000 67.1000 TC 35 -14.2421 67.1095 2 -14.1000 69.0000 TC 50 7 242
1975033S11073 1975 20 SI MM GERVAISE 1975-02-04 03:00:00 TS -14.3698 67.5146 main 1220 1171 P____P___PP_P_ SH201975 -14.3424 66.7225 -1 -14.3999 68.7026 99 -14.3424 66.7225 TC 50 -14.3643 66.7227 2 -14.3999 68.7026 TC 50 8 241
1975033S11073 1975 20 SI MM GERVAISE 1975-02-04 06:00:00 TS -14.5800 67.1000 reunion main 1171 1129 O____O___OO_O_ jtwc_sh SH201975 -14.5000 66.3000 -1 -14.7000 68.3000 3 9.90000 -14.5000 66.3000 TC 65 -14.5000 66.3000 4 -14.7000 68.3000 TC 50 9 246
1975033S11073 1975 20 SI MM GERVAISE 1975-02-04 09:00:00 TS -14.7441 66.6311 main 1120 1063 P____P___PP_P_ SH201975 -14.6425 65.8149 -1 -14.8874 67.8449 3 -14.6425 65.8149 TC 65 -14.6607 65.8359 4 -14.8874 67.8449 TC 52 10 252
1975033S11073 1975 20 SI MM GERVAISE 1975-02-04 12:00:00 TS -14.8870 66.1075 reunion main 1063 1013 O____O___OP_O_ jtwc_sh SH201975 -14.8000 65.3000 -1 -15.0000 67.3000 99 9.90000 -14.8000 65.3000 TC 65 -14.8350 65.3375 4 -15.0000 67.3000 TC 55 11 255
1975033S11073 1975 20 SI MM GERVAISE 1975-02-04 15:00:00 TS -15.0293 65.5530 main 1013 947 P____P___PP_P_ SH201975 -14.9999 64.8000 -1 -15.0650 66.6724 99 -14.9999 64.8000 TC 65 -15.0168 64.8202 4 -15.0650 66.6724 TC 57 11 256
1975033S11073 1975 20 SI MM GERVAISE 1975-02-04 18:00:00 TS -15.1600 64.9800 reunion main 947 898 O____O___OO_O_ jtwc_sh SH201975 -15.2000 64.3000 -1 -15.1000 66.0000 99 9.90000 -15.2000 64.3000 TC 65 -15.2000 64.3000 4 -15.1000 66.0000 TC 60 11 258
1975033S11073 1975 20 SI MM GERVAISE 1975-02-04 21:00:00 TS -15.2603 64.4317 main 889 841 P____P___PP_P_ SH201975 -15.3499 63.7998 -1 -15.1195 65.3796 99 -15.3499 63.7998 TC 65 -15.3625 63.7995 4 -15.1195 65.3796 TC 60 11 258
1975033S11073 1975 20 SI MM GERVAISE 1975-02-05 00:00:00 TS -15.3854 63.8599 reunion main 841 777 O____O___OP_O_ jtwc_sh SH201975 -15.5000 63.3000 -1 -15.2000 64.7000 99 9.90000 -15.5000 63.3000 TC 65 -15.5271 63.2993 4 -15.2000 64.7000 TC 60 12 254
1975033S11073 1975 20 SI MM GERVAISE 1975-02-05 03:00:00 TS -15.5857 63.2170 main 769 707 P____P___PP_P_ SH201975 -15.6849 62.7999 -1 -15.4279 63.8429 99 -15.6849 62.7999 TC 65 -15.7031 62.7995 4 -15.4279 63.8429 TC 62 13 251
1975033S11073 1975 20 SI MM GERVAISE 1975-02-05 06:00:00 TS -15.8200 62.5800 reunion main 707 653 O____O___OO_O_ jtwc_sh SH201975 -15.9000 62.3000 -1 -15.7000 63.0000 3 9.90000 -15.9000 62.3000 TC 65 -15.9000 62.3000 4 -15.7000 63.0000 TC 65 12 249
1975033S11073 1975 20 SI MM GERVAISE 1975-02-05 09:00:00 TS -16.0287 62.0306 main 645 584 P____P___PP_P_ SH201975 -16.1424 61.7999 -1 -15.8694 62.3768 3 -16.1424 61.7999 TC 65 -16.1200 61.7997 4 -15.8694 62.3768 TC 62 11 246
1975033S11073 1975 20 SI MM GERVAISE 1975-02-05 12:00:00 TS -16.2724 61.4999 reunion main 584 524 O____O___OP_O_ jtwc_sh SH201975 -16.4000 61.3000 -1 -16.1000 61.8000 99 9.90000 -16.4000 61.3000 TC 65 -16.3620 61.2996 4 -16.1000 61.8000 TC 60 12 242
1975033S11073 1975 20 SI MM GERVAISE 1975-02-05 15:00:00 TS -16.5866 60.9199 main 517 457 P____P___PP_P_ SH201975 -16.6499 60.7999 -1 -16.5051 61.1001 99 -16.6499 60.7999 TC 65 -16.6231 60.7996 4 -16.5051 61.1001 TC 65 13 239
1975033S11073 1975 20 SI MM GERVAISE 1975-02-05 18:00:00 TS -16.9400 60.3400 reunion main 450 383 O____O___OO_O_ jtwc_sh SH201975 -16.9000 60.3000 -1 -17.0000 60.4000 99 9.90000 -16.9000 60.3000 TC 65 -16.9000 60.3000 4 -17.0000 60.4000 TC 70 13 238
1975033S11073 1975 20 SI MM GERVAISE 1975-02-05 21:00:00 TS -17.2745 59.7833 main 383 326 P____P___PP_P_ SH201975 -17.1349 59.7997 -1 -17.4847 59.7771 99 -17.1349 59.7997 TC 50 -17.1330 59.7628 4 -17.4847 59.7771 TC 70 13 236
1975033S11073 1975 20 SI MM GERVAISE 1975-02-06 00:00:00 TS -17.6376 59.2463 reunion main 321 257 O____O___OP_O_ jtwc_sh SH201975 -17.4000 59.3000 -1 -18.0000 59.2000 99 9.90000 -17.4000 59.3000 TC 35 -17.3879 59.2316 4 -18.0000 59.2000 TC 70 13 234
1975033S11073 1975 20 SI MM GERVAISE 1975-02-06 03:00:00 TS -18.0448 58.6880 main 257 186 P____P___PP_P_ SH201975 -17.6975 58.7773 -1 -18.5652 58.5754 99 -17.6975 58.7773 TC 35 -17.6988 58.7346 4 -18.5652 58.5754 TC 72 13 229
1975033S11073 1975 20 SI MM GERVAISE 1975-02-06 06:00:00 TS -18.5000 58.2200 reunion main 186 124 O____O___OO_O_ jtwc_sh SH201975 -18.1000 58.3000 -1 -19.1000 58.1000 4 9.90000 -18.1000 58.3000 TC 35 -18.1000 58.3000 2 -19.1000 58.1000 TC 75 12 217
1975033S11073 1975 20 SI MM GERVAISE 1975-02-06 09:00:00 TS -18.9956 57.9370 main 124 67 P____P___PP_P_ SH201975 -18.6549 57.9050 -1 -19.5146 57.9616 4 -18.6549 57.9050 TC 35 -18.6391 57.9520 2 -19.5146 57.9616 TC 75 11 204
1975033S11073 1975 20 SI MM GERVAISE 1975-02-06 12:00:00 TS -19.5334 57.7334 reunion main 67 0 O____O___OP_O_ jtwc_sh SH201975 -19.3000 57.6000 -1 -19.9000 57.9000 99 9.90000 -19.3000 57.6000 TC 35 -19.2668 57.6672 2 -19.9000 57.9000 TC 75 12 201
1975033S11073 1975 20 SI MM GERVAISE 1975-02-06 15:00:00 TS -20.1072 57.4817 main 0 0 P____P___PP_P_ SH201975 -19.9573 57.3846 -1 -20.3427 57.6078 99 -19.9573 57.3846 TC 35 -19.9362 57.4237 2 -20.3427 57.6078 TC 72 12 202
1975033S11073 1975 20 SI MM GERVAISE 1975-02-06 18:00:00 TS -20.6800 57.2400 reunion main 24 24 O____O___OO_O_ jtwc_sh SH201975 -20.6000 57.2000 -1 -20.8000 57.3000 99 9.90000 -20.6000 57.2000 TC 35 -20.6000 57.2000 2 -20.8000 57.3000 TC 70 12 202
1975033S11073 1975 20 SI MM GERVAISE 1975-02-06 21:00:00 TS -21.2022 57.0181 main 84 84 P____P___PP_P_ SH201975 -21.1575 56.9499 -1 -21.2574 57.1272 99 -21.1575 56.9499 TC 35 -21.1812 56.9360 2 -21.2574 57.1272 TC 70 11 201
1975033S11073 1975 20 SI MM GERVAISE 1975-02-07 00:00:00 TS -21.7100 56.8180 reunion main 112 112 O____O___OP_O_ jtwc_sh SH201975 -21.7000 56.7000 -1 -21.7000 57.0000 99 9.90000 -21.7000 56.7000 TC 35 -21.7500 56.6899 2 -21.7000 57.0000 TC 70 11 199
1975033S11073 1975 20 SI MM GERVAISE 1975-02-07 03:00:00 TS -22.2267 56.6317 main 130 130 P____P___PP_P_ SH201975 -22.2925 56.4775 -1 -22.1149 56.8648 99 -22.2925 56.4775 TC 35 -22.3188 56.4738 2 -22.1149 56.8648 TC 67 11 198
1975033S11073 1975 20 SI MM GERVAISE 1975-02-07 06:00:00 TS -22.7400 56.4600 reunion main 172 172 O____O___OO_O_ jtwc_sh SH201975 -22.9000 56.3000 -1 -22.5000 56.7000 4 9.90000 -22.9000 56.3000 TC 35 -22.9000 56.3000 2 -22.5000 56.7000 TC 65 11 198
1975033S11073 1975 20 SI MM GERVAISE 1975-02-07 09:00:00 TS -23.2233 56.2817 main 213 213 P____P___PP_P_ SH201975 -23.4925 56.1773 -1 -22.8126 56.4425 4 -23.4925 56.1773 TC 35 -23.5064 56.1691 2 -22.8126 56.4425 TC 62 11 197
1975033S11073 1975 20 SI MM GERVAISE 1975-02-07 12:00:00 TS -23.7455 56.1364 reunion main 262 262 O____O___OP_O_ jtwc_sh SH201975 -24.1000 56.1000 -1 -23.2000 56.2000 99 9.90000 -24.1000 56.1000 TC 35 -24.1273 56.0818 2 -23.2000 56.2000 TC 60 12 191
1975033S11073 1975 20 SI MM GERVAISE 1975-02-07 15:00:00 TS -24.3709 56.0418 main 337 337 P____P___PP_P_ SH201975 -24.7425 56.0497 -1 -23.8050 56.0404 99 -24.7425 56.0497 TC 35 -24.7596 56.0287 2 -23.8050 56.0404 TC 60 13 186
1975033S11073 1975 20 SI MM GERVAISE 1975-02-07 18:00:00 TS -25.0400 56.0000 reunion main 404 404 O____O___OO_O_ jtwc_sh SH201975 -25.4000 56.0000 -1 -24.5000 56.0000 99 9.90000 -25.4000 56.0000 TC 35 -25.4000 56.0000 2 -24.5000 56.0000 TC 60 13 183
1975033S11073 1975 20 SI MM GERVAISE 1975-02-07 21:00:00 TS -25.6975 55.9579 main 482 482 P____P___PP_P_ SH201975 -26.0500 55.8780 -1 -25.1649 56.0825 99 -26.0500 55.8780 TC 35 -26.0579 55.8685 2 -25.1649 56.0825 TC 57 13 0
1975033S11073 1975 20 SI MM GERVAISE 1975-02-08 00:00:00 TS -26.3440 55.9947 reunion main 549 549 O____O___OP_O_ jtwc_sh SH201975 -26.7000 55.8000 -1 -25.8000 56.3000 99 9.90000 -26.7000 55.8000 TC 35 -26.7203 55.7737 2 -25.8000 56.3000 TC 55 13 174
1975033S11073 1975 20 SI MM GERVAISE 1975-02-08 03:00:00 TS -26.9663 56.1158 main 627 627 P____P___PP_P_ SH201975 -27.3645 55.7958 -1 -26.3649 56.5978 99 -27.3645 55.7958 TC 35 -27.3726 55.7916 2 -26.3649 56.5978 TC 52 13 163
1975033S11073 1975 20 SI MM GERVAISE 1975-02-08 06:00:00 MX -27.5600 56.4000 reunion main 697 697 O____O___OO_O_ jtwc_sh SH201975 -28.0000 56.0000 -1 -26.9000 57.0000 4 9.90000 -28.0000 56.0000 TC 35 -28.0000 56.0000 2 -26.9000 57.0000 EX 50 13 150
1975033S11073 1975 20 SI MM GERVAISE 1975-02-08 09:00:00 MX -28.1221 56.8703 main 760 760 P____P___PP_P_ SH201975 -28.5650 56.4951 -1 -27.4421 57.4409 4 -28.5650 56.4951 TC 35 -28.5962 56.4796 2 -27.4421 57.4409 EX 47 15 139
1975033S11073 1975 20 SI MM GERVAISE 1975-02-08 12:00:00 MX -28.6724 57.5113 reunion main 837 837 O____O___OP_O_ jtwc_sh SH201975 -29.1000 57.2000 -1 -28.0000 58.0000 99 9.90000 -29.1000 57.2000 TC 35 -29.1618 57.1567 2 -28.0000 58.0000 EX 45 17 132
1975033S11073 1975 20 SI MM GERVAISE 1975-02-08 15:00:00 MX -29.2302 58.2616 main 912 912 P____P___PP_P_ SH201975 -29.6651 57.9774 -1 -28.5624 58.6987 99 -29.6651 57.9774 TC 35 -29.6961 57.9559 2 -28.5624 58.6987 EX 42 18 129
1975033S11073 1975 20 SI MM GERVAISE 1975-02-08 18:00:00 MX -29.8000 59.0800 reunion main 1001 1001 O____O___OO_O_ jtwc_sh SH201975 -30.2000 58.8000 -1 -29.2000 59.5000 99 9.90000 -30.2000 58.8000 TC 35 -30.2000 58.8000 2 -29.2000 59.5000 EX 40 18 130
1975033S11073 1975 20 SI MM GERVAISE 1975-02-08 21:00:00 MX -30.3626 59.8097 main 1089 1089 P____P___PP_P_ SH201975 -30.6642 59.5439 -1 -29.9692 60.3062 99 -30.6642 59.5439 TC 35 -30.5239 59.3419 2 -29.9918 60.3128 EX 40 17 131
1975033S11073 1975 20 SI MM GERVAISE 1975-02-09 00:00:00 MX -30.9293 60.5882 reunion main 1172 1172 O____O___OP_O_ jtwc_sh SH201975 -31.1000 60.3000 -1 -30.8000 61.2000 99 9.90000 -31.1000 60.3000 TC 35 -30.8464 59.9408 2 -30.8000 61.2000 EX 40 18 128
1975033S11073 1975 20 SI MM GERVAISE 1975-02-09 03:00:00 MX -31.4467 61.4191 main 1256 1256 P____P___PP_P_ SH201975 -31.4632 60.9925 -1 -31.5918 62.1995 99 -31.4632 60.9925 TC 35 -31.2967 60.7666 2 -31.4188 62.1445 EX 40 20 126
1975033S11073 1975 20 SI MM GERVAISE 1975-02-09 06:00:00 MX -32.1000 62.5000 reunion main 1376 1376 O____O___OO_O_ jtwc_sh SH201975 -32.0000 62.0000 -1 -32.4000 63.3000 5 9.90000 -32.0000 62.0000 TC 35 -32.0000 62.0000 2 -32.1000 63.2000 EX 40 26 126
1975033S11073 1975 20 SI MM GERVAISE 1975-02-09 09:00:00 MX -32.9923 63.9510 main 1528 1528 P____P___PP_P_ SH201975 -32.8218 63.5408 -1 -33.2268 64.4724 5 -32.8218 63.5408 TC 30 -33.0362 63.7889 2 -33.0549 64.4120 EX 40 34 126
1975033S11073 1975 20 SI MM GERVAISE 1975-02-09 12:00:00 MX -34.1048 65.7674 reunion main 1655 1516 O____O___OP_O_ jtwc_sh SH201975 -34.0000 65.7000 -1 -34.1000 65.7000 99 9.90000 -34.0000 65.7000 TC 25 -34.3272 66.0820 2 -34.1000 65.7000 EX 40 38 127
1975033S11073 1975 20 SI MM GERVAISE 1975-02-09 15:00:00 MX -35.2780 67.5936 main 1505 1390 P____P___PP_P_ SH201975 -35.5279 68.4840 -1 -35.0231 66.8513 99 -35.5279 68.4840 TC 25 -35.7538 68.7648 2 -35.0453 66.8600 EX 40 35 129
1975033S11073 1975 20 SI MM GERVAISE 1975-02-09 18:00:00 MX -36.3273 69.1545 reunion main 1390 1325 O____O___OO_O_ jtwc_sh SH201975 -37.2000 71.7000 -1 -36.0000 68.2000 99 9.90000 -37.2000 71.7000 TC 25 -37.2000 71.7000 6 -36.0000 68.2000 EX 40 25 130
1975033S11073 1975 20 SI MM GERVAISE 1975-02-09 21:00:00 ET -36.9183 69.9958 main 1325 1232 _____P______P_ SH201975 -1 -36.9183 69.9958 99 TC 6 -36.9183 69.9958 EX 37 28 126
1975033S11073 1975 20 SI MM GERVAISE 1975-02-10 00:00:00 ET -38.0000 72.0000 reunion main 1224 1121 _____O______O_ -1 -38.0000 72.0000 99 9.90000 6 -38.0000 72.0000 EX 35 40 128
1975033S11073 1975 20 SI MM GERVAISE 1975-02-10 03:00:00 ET -39.4071 73.9906 main 1113 1003 _____P______P_ -1 -39.4071 73.9906 99 6 -39.4071 73.9906 EX 35 43 134
1975033S11073 1975 20 SI MM GERVAISE 1975-02-10 06:00:00 ET -41.0000 76.0000 reunion main 997 _____O______O_ -1 -41.0000 76.0000 99 9.90000 -41.0000 76.0000 EX 35 44 136

About IBTrACS Database

This database is a web-friendly format of International Best Track Archive for Climate Stewardship (IBTrACS), a global best track data archive curated by NOAA dating back to 1842.

Updated: 2021-10-19